Forside
METAR-TAF:

METAR-TAF

Lufthavne :

Sault Ste. Marie Municipal Airport (Sanderson Field)

Sault Ste. Marie, Michigan, USA

Breddekreds: 46-28-46N, længdekreds: 084-21-26W, højde: 210 m

Aktuelle vejr

Denne rapport blev lavet for 15 minutter siden, kl. 02:55 UTC
Vind 3 kt fra syd
Temperatur 16°C
Fugtighed 88%
Tryk 1014 hPa
Sigt: 16.1 km
skyfri

METAR: KANJ 250255Z AUTO 18003KT 10SM CLR 16/14 A2994 RMK AO2 SLP137 T01610139 51022

Tid: 23:10 (03:10 UTC)


TAF: fraværende

Vejrobservationer og prognoser fra mere end 4000 lufthavne (METAR og TAF).

De gule og røde prikker repræsenterer de meteorologiske stationer.

Flyt musen over at se navnet på stationen.

Så klik over at se vejr observationer og prognoser.

At skifte det kort: Klik på de grønne knapper med et sort kors for at zoome ind; på den grønne knap med en bindestreg for at zoome ud; eller på de grønne pile for tilstødende kort.


METAR-TAF: